sensor_id;sensor_type;location;lat;lon;timestamp;P1;durP1;ratioP1;P2;durP2;ratioP2
28988;SDS011;16089;59.952;10.818;2023-09-19T00:00:59;35.78;;;17.55;;
28988;SDS011;16089;59.952;10.818;2023-09-19T00:03:27;31.05;;;16.02;;
28988;SDS011;16089;59.952;10.818;2023-09-19T00:05:54;37.72;;;18.88;;
28988;SDS011;16089;59.952;10.818;2023-09-19T00:08:20;51.25;;;22.60;;
28988;SDS011;16089;59.952;10.818;2023-09-19T00:10:50;31.88;;;16.58;;
28988;SDS011;16089;59.952;10.818;2023-09-19T00:13:16;35.53;;;18.92;;
28988;SDS011;16089;59.952;10.818;2023-09-19T00:15:44;31.38;;;15.82;;
28988;SDS011;16089;59.952;10.818;2023-09-19T00:18:13;35.40;;;18.67;;
28988;SDS011;16089;59.952;10.818;2023-09-19T00:20:41;37.80;;;17.05;;
28988;SDS011;16089;59.952;10.818;2023-09-19T00:23:08;52.13;;;23.17;;
28988;SDS011;16089;59.952;10.818;2023-09-19T00:25:34;27.65;;;12.68;;
28988;SDS011;16089;59.952;10.818;2023-09-19T00:28:02;33.90;;;18.10;;
28988;SDS011;16089;59.952;10.818;2023-09-19T00:30:27;42.42;;;19.67;;
28988;SDS011;16089;59.952;10.818;2023-09-19T00:32:53;40.50;;;18.60;;
28988;SDS011;16089;59.952;10.818;2023-09-19T00:35:20;31.13;;;16.35;;
28988;SDS011;16089;59.952;10.818;2023-09-19T00:37:47;39.63;;;18.85;;
28988;SDS011;16089;59.952;10.818;2023-09-19T00:40:14;46.13;;;19.25;;
28988;SDS011;16089;59.952;10.818;2023-09-19T00:42:41;37.72;;;18.23;;
28988;SDS011;16089;59.952;10.818;2023-09-19T00:45:08;50.58;;;24.65;;
28988;SDS011;16089;59.952;10.818;2023-09-19T00:47:36;41.90;;;20.17;;
28988;SDS011;16089;59.952;10.818;2023-09-19T00:50:03;39.75;;;19.95;;
28988;SDS011;16089;59.952;10.818;2023-09-19T00:52:32;39.95;;;19.80;;
28988;SDS011;16089;59.952;10.818;2023-09-19T00:55:00;39.78;;;17.77;;
28988;SDS011;16089;59.952;10.818;2023-09-19T00:57:27;41.47;;;19.88;;
28988;SDS011;16089;59.952;10.818;2023-09-19T00:59:58;31.42;;;14.82;;
28988;SDS011;16089;59.952;10.818;2023-09-19T01:02:24;33.72;;;16.73;;
28988;SDS011;16089;59.952;10.818;2023-09-19T01:04:52;34.35;;;17.77;;
28988;SDS011;16089;59.952;10.818;2023-09-19T01:07:18;38.38;;;17.20;;
28988;SDS011;16089;59.952;10.818;2023-09-19T01:09:44;39.35;;;18.65;;
28988;SDS011;16089;59.952;10.818;2023-09-19T01:12:12;47.38;;;19.88;;
28988;SDS011;16089;59.952;10.818;2023-09-19T01:14:42;40.50;;;20.30;;
28988;SDS011;16089;59.952;10.818;2023-09-19T01:17:14;51.50;;;20.77;;
28988;SDS011;16089;59.952;10.818;2023-09-19T01:19:50;39.38;;;17.80;;
28988;SDS011;16089;59.952;10.818;2023-09-19T01:22:21;44.28;;;19.50;;
28988;SDS011;16089;59.952;10.818;2023-09-19T01:25:03;50.95;;;21.10;;
28988;SDS011;16089;59.952;10.818;2023-09-19T01:30:20;39.50;;;19.48;;
28988;SDS011;16089;59.952;10.818;2023-09-19T01:32:49;38.38;;;15.63;;
28988;SDS011;16089;59.952;10.818;2023-09-19T01:35:17;55.85;;;20.75;;
28988;SDS011;16089;59.952;10.818;2023-09-19T01:37:43;40.30;;;16.27;;
28988;SDS011;16089;59.952;10.818;2023-09-19T01:40:10;32.00;;;16.77;;
28988;SDS011;16089;59.952;10.818;2023-09-19T01:42:43;40.92;;;17.13;;
28988;SDS011;16089;59.952;10.818;2023-09-19T01:45:11;42.25;;;19.65;;
28988;SDS011;16089;59.952;10.818;2023-09-19T01:47:41;44.08;;;18.42;;
28988;SDS011;16089;59.952;10.818;2023-09-19T01:50:12;49.03;;;18.98;;
28988;SDS011;16089;59.952;10.818;2023-09-19T01:52:42;48.05;;;18.38;;
28988;SDS011;16089;59.952;10.818;2023-09-19T01:55:10;37.47;;;15.07;;
28988;SDS011;16089;59.952;10.818;2023-09-19T01:57:40;44.25;;;18.95;;
28988;SDS011;16089;59.952;10.818;2023-09-19T02:00:09;45.88;;;18.60;;
28988;SDS011;16089;59.952;10.818;2023-09-19T02:02:37;43.55;;;17.08;;
28988;SDS011;16089;59.952;10.818;2023-09-19T02:05:05;50.03;;;21.00;;
28988;SDS011;16089;59.952;10.818;2023-09-19T02:07:32;45.33;;;20.13;;
28988;SDS011;16089;59.952;10.818;2023-09-19T02:09:58;35.60;;;17.35;;
28988;SDS011;16089;59.952;10.818;2023-09-19T02:12:25;36.70;;;17.50;;
28988;SDS011;16089;59.952;10.818;2023-09-19T02:14:51;37.33;;;18.48;;
28988;SDS011;16089;59.952;10.818;2023-09-19T02:17:17;43.88;;;19.80;;
28988;SDS011;16089;59.952;10.818;2023-09-19T02:19:44;30.98;;;14.82;;
28988;SDS011;16089;59.952;10.818;2023-09-19T02:22:12;40.17;;;17.65;;
28988;SDS011;16089;59.952;10.818;2023-09-19T02:24:39;30.55;;;15.02;;
28988;SDS011;16089;59.952;10.818;2023-09-19T02:27:05;30.45;;;14.75;;
28988;SDS011;16089;59.952;10.818;2023-09-19T02:29:32;26.52;;;13.55;;
28988;SDS011;16089;59.952;10.818;2023-09-19T02:31:59;35.10;;;17.20;;
28988;SDS011;16089;59.952;10.818;2023-09-19T02:34:26;37.80;;;17.17;;
28988;SDS011;16089;59.952;10.818;2023-09-19T02:36:52;33.60;;;14.88;;
28988;SDS011;16089;59.952;10.818;2023-09-19T02:39:22;33.95;;;14.15;;
28988;SDS011;16089;59.952;10.818;2023-09-19T02:41:49;27.73;;;14.25;;
28988;SDS011;16089;59.952;10.818;2023-09-19T02:44:15;25.85;;;12.30;;
28988;SDS011;16089;59.952;10.818;2023-09-19T02:46:41;32.00;;;14.60;;
28988;SDS011;16089;59.952;10.818;2023-09-19T02:49:08;27.02;;;12.48;;
28988;SDS011;16089;59.952;10.818;2023-09-19T02:51:34;41.05;;;16.98;;
28988;SDS011;16089;59.952;10.818;2023-09-19T02:54:00;29.75;;;14.82;;
28988;SDS011;16089;59.952;10.818;2023-09-19T02:56:29;28.83;;;15.35;;
28988;SDS011;16089;59.952;10.818;2023-09-19T02:58:57;45.78;;;19.95;;
28988;SDS011;16089;59.952;10.818;2023-09-19T03:01:25;45.95;;;21.02;;
28988;SDS011;16089;59.952;10.818;2023-09-19T03:03:51;42.10;;;20.02;;
28988;SDS011;16089;59.952;10.818;2023-09-19T03:06:18;52.85;;;21.55;;
28988;SDS011;16089;59.952;10.818;2023-09-19T03:08:45;30.10;;;13.45;;
28988;SDS011;16089;59.952;10.818;2023-09-19T03:11:14;28.70;;;14.48;;
28988;SDS011;16089;59.952;10.818;2023-09-19T03:13:42;24.25;;;13.68;;
28988;SDS011;16089;59.952;10.818;2023-09-19T03:16:11;32.58;;;17.55;;
28988;SDS011;16089;59.952;10.818;2023-09-19T03:18:39;29.58;;;15.38;;
28988;SDS011;16089;59.952;10.818;2023-09-19T03:21:06;35.33;;;16.95;;
28988;SDS011;16089;59.952;10.818;2023-09-19T03:23:32;20.30;;;13.00;;
28988;SDS011;16089;59.952;10.818;2023-09-19T03:25:58;41.60;;;20.17;;
28988;SDS011;16089;59.952;10.818;2023-09-19T03:28:25;26.15;;;12.07;;
28988;SDS011;16089;59.952;10.818;2023-09-19T03:30:59;37.53;;;18.80;;
28988;SDS011;16089;59.952;10.818;2023-09-19T03:33:26;24.58;;;15.45;;
28988;SDS011;16089;59.952;10.818;2023-09-19T03:35:52;28.02;;;15.65;;
28988;SDS011;16089;59.952;10.818;2023-09-19T03:38:19;28.60;;;14.73;;
28988;SDS011;16089;59.952;10.818;2023-09-19T03:40:46;26.35;;;14.70;;
28988;SDS011;16089;59.952;10.818;2023-09-19T03:43:12;25.80;;;14.95;;
28988;SDS011;16089;59.952;10.818;2023-09-19T03:45:39;32.20;;;15.25;;
28988;SDS011;16089;59.952;10.818;2023-09-19T03:48:09;36.53;;;18.73;;
28988;SDS011;16089;59.952;10.818;2023-09-19T03:50:35;24.60;;;13.52;;
28988;SDS011;16089;59.952;10.818;2023-09-19T03:53:02;26.90;;;14.88;;
28988;SDS011;16089;59.952;10.818;2023-09-19T03:55:28;19.38;;;10.82;;
28988;SDS011;16089;59.952;10.818;2023-09-19T03:57:55;20.48;;;11.55;;
28988;SDS011;16089;59.952;10.818;2023-09-19T04:00:21;23.42;;;13.43;;
28988;SDS011;16089;59.952;10.818;2023-09-19T04:02:51;22.08;;;12.25;;
28988;SDS011;16089;59.952;10.818;2023-09-19T04:05:18;25.83;;;14.52;;
28988;SDS011;16089;59.952;10.818;2023-09-19T04:07:45;26.35;;;16.52;;
28988;SDS011;16089;59.952;10.818;2023-09-19T04:10:11;30.98;;;17.77;;
28988;SDS011;16089;59.952;10.818;2023-09-19T04:12:39;27.88;;;15.13;;
28988;SDS011;16089;59.952;10.818;2023-09-19T04:15:06;23.30;;;16.60;;
28988;SDS011;16089;59.952;10.818;2023-09-19T04:17:33;26.52;;;17.30;;
28988;SDS011;16089;59.952;10.818;2023-09-19T04:19:59;33.08;;;18.80;;
28988;SDS011;16089;59.952;10.818;2023-09-19T04:22:27;29.98;;;18.17;;
28988;SDS011;16089;59.952;10.818;2023-09-19T04:24:53;31.05;;;16.98;;
28988;SDS011;16089;59.952;10.818;2023-09-19T04:27:19;26.52;;;15.13;;
28988;SDS011;16089;59.952;10.818;2023-09-19T04:29:45;28.38;;;18.30;;
28988;SDS011;16089;59.952;10.818;2023-09-19T04:32:12;32.80;;;20.75;;
28988;SDS011;16089;59.952;10.818;2023-09-19T04:34:38;21.83;;;14.85;;
28988;SDS011;16089;59.952;10.818;2023-09-19T04:37:04;21.73;;;13.77;;
28988;SDS011;16089;59.952;10.818;2023-09-19T04:39:32;20.05;;;15.18;;
28988;SDS011;16089;59.952;10.818;2023-09-19T04:41:59;21.98;;;14.93;;
28988;SDS011;16089;59.952;10.818;2023-09-19T04:44:25;20.60;;;12.68;;
28988;SDS011;16089;59.952;10.818;2023-09-19T04:46:51;19.45;;;11.65;;
28988;SDS011;16089;59.952;10.818;2023-09-19T04:49:17;20.60;;;13.48;;
28988;SDS011;16089;59.952;10.818;2023-09-19T04:51:44;17.48;;;13.07;;
28988;SDS011;16089;59.952;10.818;2023-09-19T04:54:12;22.15;;;12.77;;
28988;SDS011;16089;59.952;10.818;2023-09-19T04:56:39;16.73;;;11.50;;
28988;SDS011;16089;59.952;10.818;2023-09-19T04:59:06;15.38;;;11.13;;
28988;SDS011;16089;59.952;10.818;2023-09-19T05:01:32;15.90;;;10.90;;
28988;SDS011;16089;59.952;10.818;2023-09-19T05:03:58;15.02;;;9.43;;
28988;SDS011;16089;59.952;10.818;2023-09-19T05:06:24;14.57;;;9.10;;
28988;SDS011;16089;59.952;10.818;2023-09-19T05:08:51;12.00;;;8.98;;
28988;SDS011;16089;59.952;10.818;2023-09-19T05:11:17;11.95;;;8.60;;
28988;SDS011;16089;59.952;10.818;2023-09-19T05:13:45;12.55;;;8.65;;
28988;SDS011;16089;59.952;10.818;2023-09-19T05:16:11;13.52;;;9.40;;
28988;SDS011;16089;59.952;10.818;2023-09-19T05:18:38;10.50;;;8.13;;
28988;SDS011;16089;59.952;10.818;2023-09-19T05:21:04;14.65;;;7.82;;
28988;SDS011;16089;59.952;10.818;2023-09-19T05:23:30;9.13;;;5.60;;
28988;SDS011;16089;59.952;10.818;2023-09-19T05:25:57;8.13;;;5.40;;
28988;SDS011;16089;59.952;10.818;2023-09-19T05:28:25;11.68;;;6.65;;
28988;SDS011;16089;59.952;10.818;2023-09-19T05:30:53;7.00;;;4.88;;
28988;SDS011;16089;59.952;10.818;2023-09-19T05:33:19;8.52;;;5.82;;
28988;SDS011;16089;59.952;10.818;2023-09-19T05:35:47;9.27;;;5.75;;
28988;SDS011;16089;59.952;10.818;2023-09-19T05:38:13;6.30;;;4.85;;
28988;SDS011;16089;59.952;10.818;2023-09-19T05:40:44;7.15;;;5.03;;
28988;SDS011;16089;59.952;10.818;2023-09-19T05:43:11;9.02;;;4.45;;
28988;SDS011;16089;59.952;10.818;2023-09-19T05:45:39;7.10;;;4.53;;
28988;SDS011;16089;59.952;10.818;2023-09-19T05:48:10;11.00;;;4.78;;
28988;SDS011;16089;59.952;10.818;2023-09-19T05:50:38;9.13;;;4.20;;
28988;SDS011;16089;59.952;10.818;2023-09-19T05:53:05;8.63;;;5.15;;
28988;SDS011;16089;59.952;10.818;2023-09-19T05:55:31;8.93;;;5.95;;
28988;SDS011;16089;59.952;10.818;2023-09-19T05:57:57;11.88;;;6.90;;
28988;SDS011;16089;59.952;10.818;2023-09-19T06:00:24;10.60;;;6.50;;
28988;SDS011;16089;59.952;10.818;2023-09-19T06:02:52;11.85;;;6.65;;
28988;SDS011;16089;59.952;10.818;2023-09-19T06:05:21;15.18;;;7.55;;
28988;SDS011;16089;59.952;10.818;2023-09-19T06:07:47;13.30;;;8.02;;
28988;SDS011;16089;59.952;10.818;2023-09-19T06:10:14;14.02;;;7.57;;
28988;SDS011;16089;59.952;10.818;2023-09-19T06:12:40;12.80;;;6.88;;
28988;SDS011;16089;59.952;10.818;2023-09-19T06:15:09;12.00;;;5.45;;
28988;SDS011;16089;59.952;10.818;2023-09-19T06:17:40;10.73;;;5.32;;
28988;SDS011;16089;59.952;10.818;2023-09-19T06:20:06;13.15;;;5.15;;
28988;SDS011;16089;59.952;10.818;2023-09-19T06:22:39;10.85;;;5.20;;
28988;SDS011;16089;59.952;10.818;2023-09-19T06:25:06;11.85;;;4.82;;
28988;SDS011;16089;59.952;10.818;2023-09-19T06:27:36;13.95;;;4.82;;
28988;SDS011;16089;59.952;10.818;2023-09-19T06:30:02;10.35;;;5.20;;
28988;SDS011;16089;59.952;10.818;2023-09-19T06:32:29;12.50;;;5.10;;
28988;SDS011;16089;59.952;10.818;2023-09-19T06:34:55;16.58;;;5.07;;
28988;SDS011;16089;59.952;10.818;2023-09-19T06:37:24;11.60;;;4.00;;
28988;SDS011;16089;59.952;10.818;2023-09-19T06:39:54;16.42;;;5.47;;
28988;SDS011;16089;59.952;10.818;2023-09-19T06:42:20;13.73;;;4.78;;
28988;SDS011;16089;59.952;10.818;2023-09-19T06:44:47;19.05;;;5.47;;
28988;SDS011;16089;59.952;10.818;2023-09-19T06:47:14;17.23;;;5.15;;
28988;SDS011;16089;59.952;10.818;2023-09-19T06:49:41;17.75;;;5.47;;
28988;SDS011;16089;59.952;10.818;2023-09-19T06:52:09;11.40;;;3.58;;
28988;SDS011;16089;59.952;10.818;2023-09-19T06:54:35;20.67;;;4.75;;
28988;SDS011;16089;59.952;10.818;2023-09-19T06:57:04;15.82;;;3.20;;
28988;SDS011;16089;59.952;10.818;2023-09-19T06:59:31;14.05;;;2.80;;
28988;SDS011;16089;59.952;10.818;2023-09-19T07:01:57;12.35;;;2.80;;
28988;SDS011;16089;59.952;10.818;2023-09-19T07:04:24;8.05;;;2.72;;
28988;SDS011;16089;59.952;10.818;2023-09-19T07:06:50;10.40;;;2.55;;
28988;SDS011;16089;59.952;10.818;2023-09-19T07:09:17;12.93;;;3.13;;
28988;SDS011;16089;59.952;10.818;2023-09-19T07:11:44;10.60;;;2.90;;
28988;SDS011;16089;59.952;10.818;2023-09-19T07:14:14;9.77;;;3.08;;
28988;SDS011;16089;59.952;10.818;2023-09-19T07:16:40;13.85;;;3.60;;
28988;SDS011;16089;59.952;10.818;2023-09-19T07:19:09;12.18;;;2.88;;
28988;SDS011;16089;59.952;10.818;2023-09-19T07:21:36;10.98;;;2.67;;
28988;SDS011;16089;59.952;10.818;2023-09-19T07:24:03;9.60;;;2.60;;
28988;SDS011;16089;59.952;10.818;2023-09-19T07:26:30;9.45;;;2.30;;
28988;SDS011;16089;59.952;10.818;2023-09-19T07:28:57;9.95;;;2.15;;
28988;SDS011;16089;59.952;10.818;2023-09-19T07:31:24;10.52;;;2.33;;
28988;SDS011;16089;59.952;10.818;2023-09-19T07:33:52;7.53;;;1.70;;
28988;SDS011;16089;59.952;10.818;2023-09-19T07:36:18;11.27;;;2.05;;
28988;SDS011;16089;59.952;10.818;2023-09-19T07:38:45;9.00;;;1.42;;
28988;SDS011;16089;59.952;10.818;2023-09-19T07:41:11;13.43;;;2.25;;
28988;SDS011;16089;59.952;10.818;2023-09-19T07:43:38;16.92;;;1.85;;
28988;SDS011;16089;59.952;10.818;2023-09-19T07:46:05;17.23;;;1.95;;
28988;SDS011;16089;59.952;10.818;2023-09-19T07:48:35;10.20;;;1.63;;
28988;SDS011;16089;59.952;10.818;2023-09-19T07:51:03;8.65;;;1.73;;
28988;SDS011;16089;59.952;10.818;2023-09-19T07:53:29;12.98;;;1.73;;
28988;SDS011;16089;59.952;10.818;2023-09-19T07:56:02;10.32;;;1.70;;
28988;SDS011;16089;59.952;10.818;2023-09-19T07:58:29;15.27;;;1.90;;
28988;SDS011;16089;59.952;10.818;2023-09-19T08:00:56;16.77;;;2.30;;
28988;SDS011;16089;59.952;10.818;2023-09-19T08:03:22;18.05;;;2.53;;
28988;SDS011;16089;59.952;10.818;2023-09-19T08:05:50;14.38;;;2.13;;
28988;SDS011;16089;59.952;10.818;2023-09-19T08:08:16;12.32;;;1.65;;
28988;SDS011;16089;59.952;10.818;2023-09-19T08:10:42;19.23;;;2.45;;
28988;SDS011;16089;59.952;10.818;2023-09-19T08:13:10;27.88;;;3.28;;
28988;SDS011;16089;59.952;10.818;2023-09-19T08:15:40;12.82;;;1.92;;
28988;SDS011;16089;59.952;10.818;2023-09-19T08:18:09;13.60;;;1.92;;
28988;SDS011;16089;59.952;10.818;2023-09-19T08:20:35;8.35;;;1.50;;
28988;SDS011;16089;59.952;10.818;2023-09-19T08:23:04;8.82;;;1.55;;
28988;SDS011;16089;59.952;10.818;2023-09-19T08:25:30;10.93;;;1.70;;
28988;SDS011;16089;59.952;10.818;2023-09-19T08:27:57;13.80;;;1.85;;
28988;SDS011;16089;59.952;10.818;2023-09-19T08:30:25;11.48;;;1.92;;
28988;SDS011;16089;59.952;10.818;2023-09-19T08:32:56;9.23;;;1.92;;
28988;SDS011;16089;59.952;10.818;2023-09-19T08:35:23;12.80;;;1.80;;
28988;SDS011;16089;59.952;10.818;2023-09-19T08:37:49;16.63;;;2.33;;
28988;SDS011;16089;59.952;10.818;2023-09-19T08:40:17;14.90;;;2.17;;
28988;SDS011;16089;59.952;10.818;2023-09-19T08:42:47;10.32;;;1.77;;
28988;SDS011;16089;59.952;10.818;2023-09-19T08:45:13;11.85;;;2.00;;
28988;SDS011;16089;59.952;10.818;2023-09-19T08:47:41;11.15;;;2.17;;
28988;SDS011;16089;59.952;10.818;2023-09-19T08:50:11;8.45;;;1.58;;
28988;SDS011;16089;59.952;10.818;2023-09-19T08:52:41;13.18;;;1.90;;
28988;SDS011;16089;59.952;10.818;2023-09-19T08:55:07;9.85;;;1.73;;
28988;SDS011;16089;59.952;10.818;2023-09-19T08:57:38;15.07;;;2.25;;
28988;SDS011;16089;59.952;10.818;2023-09-19T09:00:08;14.55;;;1.70;;
28988;SDS011;16089;59.952;10.818;2023-09-19T09:02:36;14.25;;;2.33;;
28988;SDS011;16089;59.952;10.818;2023-09-19T09:05:05;16.05;;;2.15;;
28988;SDS011;16089;59.952;10.818;2023-09-19T09:07:32;13.75;;;1.60;;
28988;SDS011;16089;59.952;10.818;2023-09-19T09:09:59;11.25;;;1.50;;
28988;SDS011;16089;59.952;10.818;2023-09-19T09:12:25;13.60;;;2.08;;
28988;SDS011;16089;59.952;10.818;2023-09-19T09:14:53;28.60;;;3.85;;
28988;SDS011;16089;59.952;10.818;2023-09-19T09:17:22;12.15;;;2.08;;
28988;SDS011;16089;59.952;10.818;2023-09-19T09:19:49;12.15;;;1.40;;
28988;SDS011;16089;59.952;10.818;2023-09-19T09:22:18;13.60;;;1.70;;
28988;SDS011;16089;59.952;10.818;2023-09-19T09:24:52;5.47;;;1.13;;
28988;SDS011;16089;59.952;10.818;2023-09-19T09:27:20;7.80;;;1.15;;
28988;SDS011;16089;59.952;10.818;2023-09-19T09:29:49;6.28;;;1.00;;
28988;SDS011;16089;59.952;10.818;2023-09-19T09:32:17;5.80;;;1.00;;
28988;SDS011;16089;59.952;10.818;2023-09-19T09:34:45;5.68;;;0.88;;
28988;SDS011;16089;59.952;10.818;2023-09-19T09:37:12;5.43;;;1.10;;
28988;SDS011;16089;59.952;10.818;2023-09-19T09:39:40;5.93;;;0.90;;
28988;SDS011;16089;59.952;10.818;2023-09-19T09:42:07;5.05;;;0.75;;
28988;SDS011;16089;59.952;10.818;2023-09-19T09:44:35;6.80;;;1.00;;
28988;SDS011;16089;59.952;10.818;2023-09-19T09:47:01;5.10;;;1.10;;
28988;SDS011;16089;59.952;10.818;2023-09-19T09:49:48;5.13;;;0.93;;
28988;SDS011;16089;59.952;10.818;2023-09-19T09:52:31;2.63;;;0.73;;
28988;SDS011;16089;59.952;10.818;2023-09-19T09:55:10;7.88;;;0.80;;
28988;SDS011;16089;59.952;10.818;2023-09-19T09:57:36;5.38;;;1.00;;
28988;SDS011;16089;59.952;10.818;2023-09-19T10:00:06;4.55;;;1.00;;
28988;SDS011;16089;59.952;10.818;2023-09-19T10:02:45;3.00;;;1.00;;
28988;SDS011;16089;59.952;10.818;2023-09-19T10:05:13;3.85;;;0.75;;
28988;SDS011;16089;59.952;10.818;2023-09-19T10:07:45;5.25;;;1.15;;
28988;SDS011;16089;59.952;10.818;2023-09-19T10:10:14;2.72;;;0.70;;
28988;SDS011;16089;59.952;10.818;2023-09-19T10:12:46;2.17;;;0.70;;
28988;SDS011;16089;59.952;10.818;2023-09-19T10:15:13;3.85;;;0.90;;
28988;SDS011;16089;59.952;10.818;2023-09-19T10:17:41;16.60;;;2.35;;
28988;SDS011;16089;59.952;10.818;2023-09-19T10:20:09;8.35;;;1.20;;
28988;SDS011;16089;59.952;10.818;2023-09-19T10:22:48;11.38;;;1.27;;
28988;SDS011;16089;59.952;10.818;2023-09-19T10:25:23;6.72;;;1.20;;
28988;SDS011;16089;59.952;10.818;2023-09-19T10:27:50;5.68;;;0.68;;
28988;SDS011;16089;59.952;10.818;2023-09-19T10:30:18;4.63;;;0.90;;
28988;SDS011;16089;59.952;10.818;2023-09-19T10:32:46;10.05;;;1.23;;
28988;SDS011;16089;59.952;10.818;2023-09-19T10:35:13;7.50;;;1.05;;
28988;SDS011;16089;59.952;10.818;2023-09-19T10:37:40;4.18;;;0.60;;
28988;SDS011;16089;59.952;10.818;2023-09-19T10:40:10;2.03;;;0.50;;
28988;SDS011;16089;59.952;10.818;2023-09-19T10:42:37;3.40;;;0.63;;
28988;SDS011;16089;59.952;10.818;2023-09-19T10:45:04;3.80;;;0.70;;
28988;SDS011;16089;59.952;10.818;2023-09-19T10:47:38;2.38;;;0.40;;
28988;SDS011;16089;59.952;10.818;2023-09-19T10:50:05;3.92;;;0.75;;
28988;SDS011;16089;59.952;10.818;2023-09-19T10:52:32;2.88;;;0.52;;
28988;SDS011;16089;59.952;10.818;2023-09-19T10:54:59;20.85;;;1.70;;
28988;SDS011;16089;59.952;10.818;2023-09-19T10:57:28;3.70;;;0.65;;
28988;SDS011;16089;59.952;10.818;2023-09-19T11:00:03;5.10;;;0.60;;
28988;SDS011;16089;59.952;10.818;2023-09-19T11:05:30;0.95;;;0.30;;
28988;SDS011;16089;59.952;10.818;2023-09-19T11:07:56;1.40;;;0.30;;
28988;SDS011;16089;59.952;10.818;2023-09-19T11:18:52;4.55;;;0.60;;
28988;SDS011;16089;59.952;10.818;2023-09-19T11:24:27;1.23;;;0.40;;
28988;SDS011;16089;59.952;10.818;2023-09-19T11:27:08;2.10;;;0.47;;
28988;SDS011;16089;59.952;10.818;2023-09-19T11:29:35;3.70;;;0.73;;
28988;SDS011;16089;59.952;10.818;2023-09-19T11:32:02;7.47;;;0.68;;
28988;SDS011;16089;59.952;10.818;2023-09-19T11:34:39;11.40;;;0.93;;
28988;SDS011;16089;59.952;10.818;2023-09-19T11:37:17;5.95;;;1.10;;
28988;SDS011;16089;59.952;10.818;2023-09-19T11:40:05;4.57;;;1.10;;
28988;SDS011;16089;59.952;10.818;2023-09-19T11:42:40;2.97;;;0.70;;
28988;SDS011;16089;59.952;10.818;2023-09-19T11:45:07;1.52;;;0.55;;
28988;SDS011;16089;59.952;10.818;2023-09-19T11:47:33;9.52;;;1.20;;
28988;SDS011;16089;59.952;10.818;2023-09-19T11:50:02;2.28;;;0.80;;
28988;SDS011;16089;59.952;10.818;2023-09-19T11:52:28;5.32;;;0.73;;
28988;SDS011;16089;59.952;10.818;2023-09-19T11:54:59;3.83;;;0.70;;
28988;SDS011;16089;59.952;10.818;2023-09-19T11:57:27;3.55;;;0.50;;
28988;SDS011;16089;59.952;10.818;2023-09-19T11:59:55;1.23;;;0.40;;
28988;SDS011;16089;59.952;10.818;2023-09-19T12:02:27;3.92;;;0.52;;
28988;SDS011;16089;59.952;10.818;2023-09-19T12:04:59;1.75;;;0.60;;
28988;SDS011;16089;59.952;10.818;2023-09-19T12:07:27;2.35;;;0.65;;
28988;SDS011;16089;59.952;10.818;2023-09-19T12:10:02;4.72;;;0.90;;
28988;SDS011;16089;59.952;10.818;2023-09-19T12:12:29;3.40;;;0.90;;
28988;SDS011;16089;59.952;10.818;2023-09-19T12:14:58;4.43;;;0.88;;
28988;SDS011;16089;59.952;10.818;2023-09-19T12:17:24;2.92;;;0.60;;
28988;SDS011;16089;59.952;10.818;2023-09-19T12:20:01;5.35;;;0.90;;
28988;SDS011;16089;59.952;10.818;2023-09-19T12:22:40;2.47;;;0.90;;
28988;SDS011;16089;59.952;10.818;2023-09-19T12:25:08;3.50;;;0.77;;
28988;SDS011;16089;59.952;10.818;2023-09-19T12:27:41;9.63;;;1.13;;
28988;SDS011;16089;59.952;10.818;2023-09-19T12:30:08;4.10;;;0.90;;
28988;SDS011;16089;59.952;10.818;2023-09-19T12:32:35;2.70;;;0.70;;
28988;SDS011;16089;59.952;10.818;2023-09-19T12:35:03;2.47;;;0.60;;
28988;SDS011;16089;59.952;10.818;2023-09-19T12:37:35;3.28;;;0.60;;
28988;SDS011;16089;59.952;10.818;2023-09-19T12:40:06;3.58;;;0.90;;
28988;SDS011;16089;59.952;10.818;2023-09-19T12:42:42;3.17;;;0.63;;
28988;SDS011;16089;59.952;10.818;2023-09-19T12:45:09;4.60;;;0.98;;
28988;SDS011;16089;59.952;10.818;2023-09-19T12:47:38;3.55;;;0.90;;
28988;SDS011;16089;59.952;10.818;2023-09-19T12:50:08;3.35;;;0.77;;
28988;SDS011;16089;59.952;10.818;2023-09-19T12:52:40;2.75;;;0.73;;
28988;SDS011;16089;59.952;10.818;2023-09-19T12:55:07;4.05;;;0.68;;
28988;SDS011;16089;59.952;10.818;2023-09-19T12:57:36;2.92;;;0.70;;
28988;SDS011;16089;59.952;10.818;2023-09-19T13:00:04;4.30;;;1.10;;
28988;SDS011;16089;59.952;10.818;2023-09-19T13:02:35;2.13;;;0.70;;
28988;SDS011;16089;59.952;10.818;2023-09-19T13:05:01;4.35;;;0.70;;
28988;SDS011;16089;59.952;10.818;2023-09-19T13:07:42;5.95;;;1.05;;
28988;SDS011;16089;59.952;10.818;2023-09-19T13:10:12;4.47;;;0.90;;
28988;SDS011;16089;59.952;10.818;2023-09-19T13:12:41;5.63;;;0.73;;
28988;SDS011;16089;59.952;10.818;2023-09-19T13:15:08;4.72;;;1.10;;
28988;SDS011;16089;59.952;10.818;2023-09-19T13:17:44;5.97;;;1.02;;
28988;SDS011;16089;59.952;10.818;2023-09-19T13:20:20;5.30;;;0.90;;
28988;SDS011;16089;59.952;10.818;2023-09-19T13:22:47;6.03;;;1.00;;
28988;SDS011;16089;59.952;10.818;2023-09-19T13:25:23;5.93;;;1.02;;
28988;SDS011;16089;59.952;10.818;2023-09-19T13:27:50;2.72;;;1.00;;
28988;SDS011;16089;59.952;10.818;2023-09-19T13:30:19;4.45;;;1.02;;
28988;SDS011;16089;59.952;10.818;2023-09-19T13:32:45;6.20;;;1.30;;
28988;SDS011;16089;59.952;10.818;2023-09-19T13:35:12;5.22;;;1.23;;
28988;SDS011;16089;59.952;10.818;2023-09-19T13:37:39;6.00;;;1.33;;
28988;SDS011;16089;59.952;10.818;2023-09-19T13:40:06;9.27;;;1.40;;
28988;SDS011;16089;59.952;10.818;2023-09-19T13:42:34;4.40;;;1.25;;
28988;SDS011;16089;59.952;10.818;2023-09-19T13:45:01;6.57;;;1.42;;
28988;SDS011;16089;59.952;10.818;2023-09-19T13:47:27;3.78;;;1.17;;
28988;SDS011;16089;59.952;10.818;2023-09-19T13:49:54;7.13;;;1.30;;
28988;SDS011;16089;59.952;10.818;2023-09-19T13:52:20;8.30;;;1.58;;
28988;SDS011;16089;59.952;10.818;2023-09-19T13:54:46;8.15;;;1.45;;
28988;SDS011;16089;59.952;10.818;2023-09-19T13:57:13;4.57;;;1.20;;
28988;SDS011;16089;59.952;10.818;2023-09-19T13:59:40;10.00;;;1.58;;
28988;SDS011;16089;59.952;10.818;2023-09-19T14:02:07;8.90;;;1.38;;
28988;SDS011;16089;59.952;10.818;2023-09-19T14:04:33;6.55;;;1.40;;
28988;SDS011;16089;59.952;10.818;2023-09-19T14:07:00;13.50;;;1.70;;
28988;SDS011;16089;59.952;10.818;2023-09-19T14:09:26;5.90;;;1.45;;
28988;SDS011;16089;59.952;10.818;2023-09-19T14:11:53;5.90;;;1.40;;
28988;SDS011;16089;59.952;10.818;2023-09-19T14:14:19;6.53;;;1.30;;
28988;SDS011;16089;59.952;10.818;2023-09-19T14:16:47;6.40;;;1.20;;
28988;SDS011;16089;59.952;10.818;2023-09-19T14:19:13;5.22;;;1.17;;
28988;SDS011;16089;59.952;10.818;2023-09-19T14:21:41;6.32;;;1.02;;
28988;SDS011;16089;59.952;10.818;2023-09-19T14:24:07;4.25;;;1.00;;
28988;SDS011;16089;59.952;10.818;2023-09-19T14:26:34;3.70;;;1.13;;
28988;SDS011;16089;59.952;10.818;2023-09-19T14:29:00;5.07;;;1.23;;
28988;SDS011;16089;59.952;10.818;2023-09-19T14:31:27;5.05;;;1.15;;
28988;SDS011;16089;59.952;10.818;2023-09-19T14:33:54;2.15;;;0.80;;
28988;SDS011;16089;59.952;10.818;2023-09-19T14:36:21;4.65;;;0.90;;
28988;SDS011;16089;59.952;10.818;2023-09-19T14:38:51;6.07;;;1.10;;
28988;SDS011;16089;59.952;10.818;2023-09-19T14:41:18;4.53;;;0.90;;
28988;SDS011;16089;59.952;10.818;2023-09-19T14:43:45;3.88;;;0.80;;
28988;SDS011;16089;59.952;10.818;2023-09-19T14:46:11;2.83;;;0.80;;